Time;durP1;ratioP1;P1;durP2;ratioP2;P2;SDS_P1;SDS_P2;PMS_P1;PMS_P2;Temp;Humidity;BMP_temperature;BMP_pressure;BME280_temperature;BME280_humidity;BME280_pressure;Samples;Min_cycle;Max_cycle;Signal;HPM_P1;HPM_P2
2022/12/13 00:01:54;;;;;;;29.67;18.20;;;;;;;-2.03;80.74;97425.91;4184245;28;20688;-84
2022/12/13 00:04:01;;;;;;;36.63;18.17;;;;;;;-2.04;80.82;97419.13;4201095;28;20225;-84
2022/12/13 00:06:04;;;;;;;31.05;18.08;;;;;;;-2.06;80.54;97420.03;4199146;28;20750;-84
2022/12/13 00:08:09;;;;;;;33.42;18.83;;;;;;;-2.05;80.73;97419.16;4199647;28;20256;-84
2022/12/13 00:10:12;;;;;;;34.60;20.40;;;;;;;-2.07;80.76;97415.84;4197943;28;20212;-84
2022/12/13 00:12:16;;;;;;;35.70;20.48;;;;;;;-2.08;80.62;97406.50;4193604;28;20233;-83
2022/12/13 00:14:19;;;;;;;35.83;18.05;;;;;;;-2.07;80.81;97398.78;4179069;28;20686;-84
2022/12/13 00:16:24;;;;;;;30.63;18.60;;;;;;;-2.05;80.65;97399.56;4195769;28;20201;-83
2022/12/13 00:18:27;;;;;;;34.38;18.20;;;;;;;-2.07;80.36;97403.88;4197453;28;20213;-83
2022/12/13 00:20:30;;;;;;;31.27;18.25;;;;;;;-2.10;80.64;97401.44;4203020;28;20209;-84
2022/12/13 00:22:33;;;;;;;35.13;20.48;;;;;;;-2.11;80.38;97393.81;4195738;28;20664;-83
2022/12/13 00:24:38;;;;;;;35.10;18.83;;;;;;;-2.10;80.21;97401.44;4199422;28;20221;-84
2022/12/13 00:26:54;;;;;;;37.20;19.90;;;;;;;-2.11;80.00;97392.09;4184364;28;20205;-84
2022/12/13 00:28:59;;;;;;;31.67;17.80;;;;;;;-2.17;80.33;97391.44;4185873;28;20267;-84
2022/12/13 00:31:02;;;;;;;33.35;20.67;;;;;;;-2.19;80.41;97390.66;4197805;28;20217;-84
2022/12/13 00:33:25;;;;;;;35.38;18.77;;;;;;;-2.17;80.77;97389.72;4186976;28;20680;-84
2022/12/13 00:35:29;;;;;;;32.08;18.05;;;;;;;-2.12;80.86;97395.53;4187565;28;20198;-83
2022/12/13 00:37:32;;;;;;;30.48;18.30;;;;;;;-2.12;80.53;97392.13;4194800;28;20925;-84
2022/12/13 00:39:35;;;;;;;32.70;17.20;;;;;;;-2.10;80.54;97385.28;4202748;28;20204;-83
2022/12/13 00:41:40;;;;;;;33.47;18.30;;;;;;;-2.06;80.32;97389.41;4185994;28;20860;-83
2022/12/13 00:43:44;;;;;;;30.85;18.17;;;;;;;-2.05;80.00;97389.34;4183966;28;20235;-84
2022/12/13 00:45:47;;;;;;;32.25;18.30;;;;;;;-2.05;80.26;97386.78;4201346;28;20220;-83
2022/12/13 00:47:51;;;;;;;33.75;18.27;;;;;;;-2.04;80.12;97388.47;4202664;28;20215;-84
2022/12/13 00:49:54;;;;;;;31.90;18.48;;;;;;;-2.06;79.95;97381.75;4203399;28;20288;-84
2022/12/13 00:51:57;;;;;;;32.42;16.83;;;;;;;-2.12;79.75;97381.94;4192279;28;20730;-84
2022/12/13 00:54:01;;;;;;;29.50;17.30;;;;;;;-2.16;79.58;97378.63;4196673;28;20205;-84
2022/12/13 00:56:05;;;;;;;33.05;17.13;;;;;;;-2.16;79.76;97383.75;4201279;28;20205;-83
2022/12/13 00:58:09;;;;;;;30.58;17.20;;;;;;;-2.16;79.98;97380.38;4191499;28;20589;-83
2022/12/13 01:00:15;;;;;;;28.88;16.98;;;;;;;-2.13;79.72;97381.09;4191012;28;20209;-84
2022/12/13 01:02:18;;;;;;;33.47;18.40;;;;;;;-2.06;80.06;97384.28;4202945;28;20780;-84
2022/12/13 01:04:21;;;;;;;37.33;20.83;;;;;;;-2.07;79.45;97383.47;4199009;28;20726;-83
2022/12/13 01:06:28;;;;;;;33.08;18.63;;;;;;;-2.09;80.02;97375.03;4201122;28;20257;-83
2022/12/13 01:08:33;;;;;;;30.98;17.80;;;;;;;-2.08;79.87;97378.41;4184959;28;21392;-84
2022/12/13 01:10:36;;;;;;;30.63;17.23;;;;;;;-2.09;80.03;97382.69;4214580;28;20684;-84
2022/12/13 01:12:39;;;;;;;34.58;19.45;;;;;;;-2.10;79.30;97378.44;4198175;28;20691;-84
2022/12/13 01:14:44;;;;;;;36.60;20.30;;;;;;;-2.12;79.58;97371.72;4203916;28;20594;-84
2022/12/13 01:16:47;;;;;;;32.25;18.80;;;;;;;-2.17;79.68;97374.41;4204552;28;20232;-83
2022/12/13 01:18:50;;;;;;;35.70;19.58;;;;;;;-2.17;79.77;97373.59;4194197;28;20665;-84
2022/12/13 01:21:00;;;;;;;32.75;18.45;;;;;;;-2.15;79.97;97369.25;4201648;28;20209;-83
2022/12/13 01:23:03;;;;;;;32.58;18.88;;;;;;;-2.14;79.89;97373.50;4191680;28;20255;-84
2022/12/13 01:25:07;;;;;;;31.45;17.23;;;;;;;-2.16;79.60;97372.72;4200303;28;20225;-83
2022/12/13 01:27:10;;;;;;;30.92;17.52;;;;;;;-2.14;79.93;97373.50;4198041;28;20300;-84
2022/12/13 01:29:14;;;;;;;30.90;17.88;;;;;;;-2.16;79.74;97370.97;4189610;28;20198;-84
2022/12/13 01:31:20;;;;;;;31.63;18.25;;;;;;;-2.24;80.14;97372.94;4196266;28;20212;-84
2022/12/13 01:33:23;;;;;;;28.67;18.20;;;;;;;-2.29;79.99;97369.66;4198386;28;20697;-84
2022/12/13 01:35:27;;;;;;;30.50;18.60;;;;;;;-2.33;80.18;97365.56;4197720;28;20209;-84
2022/12/13 01:37:30;;;;;;;34.20;19.35;;;;;;;-2.34;80.24;97364.78;4184766;28;20340;-84
2022/12/13 01:39:39;;;;;;;31.15;18.25;;;;;;;-2.33;80.14;97365.56;4203534;28;20213;-83
2022/12/13 01:41:44;;;;;;;36.78;19.85;;;;;;;-2.36;80.01;97363.97;4184629;28;20251;-85
2022/12/13 01:43:54;;;;;;;32.97;18.42;;;;;;;-2.42;80.78;97367.56;4203553;28;20746;-84
2022/12/13 01:45:57;;;;;;;35.08;18.50;;;;;;;-2.38;80.49;97373.41;4203630;28;20349;-84
2022/12/13 01:48:04;;;;;;;33.60;20.50;;;;;;;-2.40;80.38;97367.50;4197928;28;20233;-84
2022/12/13 01:50:10;;;;;;;31.98;18.10;;;;;;;-2.38;80.51;97364.00;4186363;28;20599;-84
2022/12/13 01:52:13;;;;;;;29.15;17.77;;;;;;;-2.32;80.67;97359.56;4202810;28;20208;-84
2022/12/13 01:54:19;;;;;;;37.25;21.35;;;;;;;-2.34;80.27;97359.69;4185918;28;20205;-84
2022/12/13 01:56:28;;;;;;;36.47;20.58;;;;;;;-2.33;80.73;97357.91;4199504;28;20205;-83
2022/12/13 01:58:31;;;;;;;32.92;18.77;;;;;;;-2.29;80.03;97359.47;4195672;28;20205;-84
2022/12/13 02:00:35;;;;;;;34.47;19.70;;;;;;;-2.26;80.12;97354.25;4201194;28;20212;-84
2022/12/13 02:02:45;;;;;;;35.08;18.70;;;;;;;-2.23;80.00;97356.72;4185511;28;20205;-84
2022/12/13 02:04:53;;;;;;;39.05;22.17;;;;;;;-2.23;79.87;97359.28;4201058;28;20705;-84
2022/12/13 02:06:57;;;;;;;34.50;20.23;;;;;;;-2.20;79.86;97358.34;4199498;28;20196;-84
2022/12/13 02:09:01;;;;;;;32.55;18.50;;;;;;;-2.21;79.72;97359.22;4198746;28;20300;-84
2022/12/13 02:11:04;;;;;;;32.50;20.38;;;;;;;-2.21;80.22;97352.44;4198104;28;20206;-84
2022/12/13 02:13:10;;;;;;;36.20;20.20;;;;;;;-2.21;79.78;97354.97;4199528;28;20193;-84
2022/12/13 02:15:15;;;;;;;37.42;20.40;;;;;;;-2.19;79.56;97348.09;4196606;28;20201;-84
2022/12/13 02:17:28;;;;;;;33.80;19.55;;;;;;;-2.23;79.62;97348.25;4198161;28;20723;-84
2022/12/13 02:19:59;;;;;;;32.88;19.85;;;;;;;-2.28;79.44;97345.84;4188792;28;20193;-83
2022/12/13 02:22:13;;;;;;;35.50;19.95;;;;;;;-2.31;79.67;97348.47;4137817;28;20296;-84
2022/12/13 02:24:40;;;;;;;32.50;18.73;;;;;;;-2.26;79.66;97344.06;4187028;28;20209;-84
2022/12/13 02:27:10;;;;;;;33.30;19.38;;;;;;;-2.29;79.75;97346.69;4179632;28;20549;-84
2022/12/13 02:29:30;;;;;;;34.35;19.02;;;;;;;-2.27;79.89;97344.97;4191313;28;20278;-84
2022/12/13 02:31:42;;;;;;;31.50;18.00;;;;;;;-2.23;79.62;97338.84;4198587;28;20213;-84
2022/12/13 02:33:50;;;;;;;34.72;20.55;;;;;;;-2.24;79.89;97339.75;4183815;28;20850;-84
2022/12/13 02:36:01;;;;;;;32.72;17.52;;;;;;;-2.25;79.88;97340.63;4200780;28;20205;-84
2022/12/13 02:38:10;;;;;;;33.40;17.85;;;;;;;-2.20;79.49;97348.97;4187825;28;20291;-84
2022/12/13 02:40:19;;;;;;;33.42;18.17;;;;;;;-2.20;79.66;97343.03;4185538;28;20213;-84
2022/12/13 02:42:26;;;;;;;35.47;19.55;;;;;;;-2.25;79.67;97342.34;4205824;28;20232;-84
2022/12/13 02:44:33;;;;;;;32.55;19.63;;;;;;;-2.24;79.76;97341.47;4190235;28;20217;-84
2022/12/13 02:46:43;;;;;;;35.60;19.52;;;;;;;-2.21;79.80;97337.13;4201156;28;20224;-84
2022/12/13 02:48:47;;;;;;;35.90;19.23;;;;;;;-2.20;79.65;97328.56;4200049;28;20243;-84
2022/12/13 02:50:51;;;;;;;32.22;18.17;;;;;;;-2.18;79.97;97339.56;4198841;28;20197;-84
2022/12/13 02:52:55;;;;;;;32.75;18.30;;;;;;;-2.14;79.92;97333.47;4199396;28;20212;-84
2022/12/13 02:55:00;;;;;;;32.45;18.15;;;;;;;-2.16;79.39;97332.69;4197413;28;20576;-84
2022/12/13 02:57:04;;;;;;;32.95;19.50;;;;;;;-2.18;79.78;97331.91;4196190;28;20204;-84
2022/12/13 02:59:11;;;;;;;31.67;17.83;;;;;;;-2.19;79.23;97330.22;4189293;28;20649;-84
2022/12/13 03:01:25;;;;;;;32.75;18.38;;;;;;;-2.20;78.89;97331.09;4197691;28;20201;-84
2022/12/13 03:03:41;;;;;;;32.58;18.20;;;;;;;-2.23;79.34;97335.47;4184868;28;20205;-84
2022/12/13 03:08:18;;;;;;;31.63;18.20;;;;;;;-2.23;79.25;97338.84;4198038;28;20288;-84
2022/12/13 03:10:28;;;;;;;33.90;18.17;;;;;;;-2.19;79.43;97334.50;4187403;28;20213;-85
2022/12/13 03:14:59;;;;;;;35.10;19.67;;;;;;;-2.32;79.45;97328.09;4196489;28;20237;-85
2022/12/13 03:17:02;;;;;;;35.15;19.42;;;;;;;-2.39;79.63;97320.69;4189200;28;20673;-84
2022/12/13 03:19:08;;;;;;;32.92;20.10;;;;;;;-2.39;79.36;97328.34;4205472;28;20215;-85
2022/12/13 03:21:12;;;;;;;38.00;20.52;;;;;;;-2.36;79.26;97324.00;4199108;28;20208;-85
2022/12/13 03:23:15;;;;;;;56.38;28.38;;;;;;;-2.35;79.50;97327.38;4199436;28;20217;-84
2022/12/13 03:25:19;;;;;;;39.20;21.58;;;;;;;-2.34;79.18;97324.78;4201591;28;20645;-84
2022/12/13 03:27:34;;;;;;;37.70;20.48;;;;;;;-2.34;79.21;97313.75;4200999;28;20222;-84
2022/12/13 03:29:37;;;;;;;42.35;24.63;;;;;;;-2.35;79.43;97306.97;4188056;28;20214;-84
2022/12/13 03:31:41;;;;;;;36.17;22.00;;;;;;;-2.40;79.28;97308.81;4198814;28;20284;-84
2022/12/13 03:33:45;;;;;;;40.63;22.67;;;;;;;-2.40;79.30;97307.09;4200234;28;20749;-84
2022/12/13 03:35:49;;;;;;;40.55;23.02;;;;;;;-2.41;78.92;97313.06;4183380;28;20221;-84
2022/12/13 03:37:52;;;;;;;32.65;19.15;;;;;;;-2.40;78.97;97304.53;4199185;28;20715;-84
2022/12/13 03:39:56;;;;;;;32.55;18.95;;;;;;;-2.41;79.24;97307.16;4198830;28;20213;-85
2022/12/13 03:41:59;;;;;;;32.05;20.08;;;;;;;-2.48;78.92;97308.19;4200305;28;20254;-85
2022/12/13 03:44:05;;;;;;;31.30;18.20;;;;;;;-2.56;79.02;97297.41;4197176;28;20209;-84
2022/12/13 03:46:08;;;;;;;34.75;18.35;;;;;;;-2.55;78.92;97304.19;4187578;28;20234;-84
2022/12/13 03:48:11;;;;;;;35.65;19.30;;;;;;;-2.59;79.42;97305.16;4199508;28;20224;-84
2022/12/13 03:50:24;;;;;;;32.60;18.48;;;;;;;-2.61;79.16;97300.09;4183971;28;20380;-84
2022/12/13 03:52:30;;;;;;;33.63;18.88;;;;;;;-2.70;79.93;97294.44;4194368;28;20767;-84
2022/12/13 03:54:33;;;;;;;29.55;18.50;;;;;;;-2.75;79.40;97294.56;4197292;28;20204;-84
2022/12/13 03:56:36;;;;;;;36.08;20.10;;;;;;;-2.79;79.61;97295.53;4198765;28;20217;-84
2022/12/13 03:58:40;;;;;;;31.77;18.17;;;;;;;-2.83;79.37;97292.28;4200371;28;20244;-84
2022/12/13 04:00:44;;;;;;;37.97;20.33;;;;;;;-2.88;79.96;97289.06;4180174;28;20301;-84
2022/12/13 04:02:47;;;;;;;30.30;18.48;;;;;;;-2.92;79.66;97277.28;4186518;28;20665;-85
2022/12/13 04:04:50;;;;;;;31.13;16.80;;;;;;;-2.90;79.76;97283.16;4202015;28;20247;-84
2022/12/13 04:06:53;;;;;;;28.90;18.02;;;;;;;-2.94;79.72;97279.03;4197122;28;20259;-84
2022/12/13 04:08:57;;;;;;;31.58;18.60;;;;;;;-2.94;80.00;97290.06;4199126;28;20751;-84
2022/12/13 04:13:31;;;;;;;29.52;16.95;;;;;;;-2.87;79.76;97285.59;4183916;28;20220;-84
2022/12/13 04:13:32;;;;;;;31.05;17.52;;;;;;;-2.89;79.69;97285.66;4204901;28;20290;-84
2022/12/13 04:15:36;;;;;;;27.80;17.20;;;;;;;-2.87;79.63;97283.06;4204498;28;20651;-84
2022/12/13 04:17:39;;;;;;;32.63;17.10;;;;;;;-2.83;79.37;97285.47;4200280;28;20205;-85
2022/12/13 04:19:42;;;;;;;29.25;16.80;;;;;;;-2.82;79.48;97278.69;4185340;28;20205;-84
2022/12/13 04:21:46;;;;;;;31.77;17.17;;;;;;;-2.78;79.04;97283.66;4199586;28;20201;-84
2022/12/13 04:23:49;;;;;;;32.97;16.95;;;;;;;-2.76;79.04;97294.63;4199799;28;20202;-84
2022/12/13 04:25:53;;;;;;;30.35;17.08;;;;;;;-2.73;79.60;97300.47;4197346;28;20216;-84
2022/12/13 04:27:59;;;;;;;33.72;18.65;;;;;;;-2.69;78.73;97296.09;4190843;28;20200;-84
2022/12/13 04:30:02;;;;;;;26.75;16.05;;;;;;;-2.69;78.82;97291.00;4208399;28;20213;-83
2022/12/13 04:32:06;;;;;;;29.30;16.05;;;;;;;-2.73;78.66;97276.69;4191472;28;20221;-84
2022/12/13 04:34:29;;;;;;;31.85;17.38;;;;;;;-2.74;78.81;97287.75;4188623;28;20240;-84
2022/12/13 04:36:39;;;;;;;31.30;17.55;;;;;;;-2.70;78.98;97289.34;4185566;28;20205;-84
2022/12/13 04:38:42;;;;;;;36.55;18.55;;;;;;;-2.68;78.67;97295.22;4200903;28;20677;-84
2022/12/13 04:40:45;;;;;;;29.92;17.15;;;;;;;-2.69;78.50;97296.09;4206328;28;20205;-84
2022/12/13 04:42:50;;;;;;;25.80;15.82;;;;;;;-2.67;78.51;97291.81;4201209;28;20780;-84
2022/12/13 04:44:56;;;;;;;31.05;17.25;;;;;;;-2.62;78.51;97292.50;4199508;28;20296;-85
2022/12/13 04:47:01;;;;;;;30.42;17.10;;;;;;;-2.60;78.68;97288.16;4198179;28;20292;-84
2022/12/13 04:49:04;;;;;;;30.40;17.00;;;;;;;-2.61;78.20;97284.78;4200604;28;20220;-84
2022/12/13 04:51:08;;;;;;;26.45;16.50;;;;;;;-2.59;78.03;97284.75;4187971;28;20216;-84
2022/12/13 04:53:14;;;;;;;30.23;16.83;;;;;;;-2.65;78.35;97280.66;4202585;28;20198;-84
2022/12/13 04:55:17;;;;;;;26.10;15.50;;;;;;;-2.62;78.17;97278.00;4189342;28;20209;-84
2022/12/13 04:57:24;;;;;;;27.52;15.95;;;;;;;-2.64;77.94;97272.13;4185546;28;20286;-84
2022/12/13 04:59:28;;;;;;;33.70;17.30;;;;;;;-2.64;78.57;97271.31;4199600;28;20617;-84
2022/12/13 05:01:31;;;;;;;27.77;16.77;;;;;;;-2.69;77.97;97265.47;4197386;28;20658;-84
2022/12/13 05:03:34;;;;;;;30.75;16.30;;;;;;;-2.78;78.13;97260.69;4196680;28;20201;-83
2022/12/13 05:05:39;;;;;;;28.60;16.38;;;;;;;-2.80;78.39;97259.88;4187936;28;20208;-84
2022/12/13 05:07:42;;;;;;;29.90;17.10;;;;;;;-2.84;77.90;97263.44;4199675;28;20236;-84
2022/12/13 05:09:45;;;;;;;27.20;15.35;;;;;;;-2.87;78.37;97262.66;4199660;28;20270;-84
2022/12/13 05:11:48;;;;;;;27.52;15.93;;;;;;;-2.83;78.17;97266.78;4187233;28;20209;-84
2022/12/13 05:13:51;;;;;;;27.52;15.23;;;;;;;-2.82;78.36;97269.31;4188432;28;20209;-84
2022/12/13 05:15:56;;;;;;;25.42;14.40;;;;;;;-2.79;78.28;97269.22;4199651;28;20742;-84
2022/12/13 05:18:00;;;;;;;28.08;15.23;;;;;;;-2.84;77.91;97265.97;4199189;28;20220;-84
2022/12/13 05:20:12;;;;;;;27.77;16.15;;;;;;;-2.82;78.37;97264.19;4186881;28;20672;-84
2022/12/13 05:22:15;;;;;;;29.17;15.85;;;;;;;-2.77;78.32;97272.53;4206128;28;20224;-84
2022/12/13 05:24:22;;;;;;;28.17;16.75;;;;;;;-2.76;78.22;97267.41;4198458;28;20319;-84
2022/12/13 05:26:25;;;;;;;28.65;17.10;;;;;;;-2.74;78.38;97262.25;4185426;28;20240;-84
2022/12/13 05:28:29;;;;;;;29.02;16.33;;;;;;;-2.64;78.13;97264.47;4186078;28;20796;-84
2022/12/13 05:30:33;;;;;;;28.10;17.42;;;;;;;-2.72;77.99;97266.44;4182389;28;20208;-84
2022/12/13 05:32:38;;;;;;;28.90;16.70;;;;;;;-2.73;77.73;97271.59;4183704;28;20201;-83
2022/12/13 05:34:46;;;;;;;30.00;16.90;;;;;;;-2.70;78.00;97271.50;4184694;28;20224;-84
2022/12/13 05:36:49;;;;;;;26.25;15.95;;;;;;;-2.77;77.93;97264.88;4194413;28;20769;-87
2022/12/13 05:38:53;;;;;;;29.30;16.92;;;;;;;-2.77;77.88;97263.19;4199188;28;20213;-85
2022/12/13 05:40:56;;;;;;;28.73;16.30;;;;;;;-2.78;77.92;97266.63;4199452;28;20787;-86
2022/12/13 05:43:00;;;;;;;28.42;16.02;;;;;;;-2.79;77.89;97266.66;4198039;28;20236;-85
2022/12/13 05:45:10;;;;;;;26.30;16.08;;;;;;;-2.77;78.12;97259.78;4202008;28;20210;-85
2022/12/13 05:47:14;;;;;;;24.35;14.15;;;;;;;-2.75;77.54;97260.59;4187325;28;20283;-85
2022/12/13 05:49:19;;;;;;;27.50;15.48;;;;;;;-2.83;77.60;97257.44;4189809;28;20209;-84
2022/12/13 05:51:26;;;;;;;29.90;16.08;;;;;;;-2.85;77.96;97258.38;4198071;28;20225;-85
2022/12/13 05:53:30;;;;;;;27.83;17.73;;;;;;;-2.86;78.16;97257.50;4185066;28;20247;-85
2022/12/13 05:55:33;;;;;;;30.85;16.38;;;;;;;-2.86;77.57;97254.97;4199711;28;20255;-85
2022/12/13 05:57:37;;;;;;;31.30;17.35;;;;;;;-2.96;77.82;97248.50;4184487;28;20260;-85
2022/12/13 05:59:40;;;;;;;24.92;15.27;;;;;;;-2.99;78.33;97250.28;4199062;28;20200;-85
2022/12/13 06:01:43;;;;;;;30.38;17.30;;;;;;;-3.02;78.23;97251.22;4198282;28;20202;-85
2022/12/13 06:03:46;;;;;;;28.48;16.85;;;;;;;-3.05;78.24;97255.56;4200671;28;20202;-85
2022/12/13 06:05:50;;;;;;;31.35;16.90;;;;;;;-3.04;78.55;97257.22;4199154;28;20205;-85
2022/12/13 06:07:54;;;;;;;25.67;16.02;;;;;;;-3.07;78.07;97258.16;4184159;28;20280;-85
2022/12/13 06:09:59;;;;;;;27.10;14.82;;;;;;;-3.11;78.44;97248.06;4195380;28;20241;-84
2022/12/13 06:12:14;;;;;;;27.05;15.55;;;;;;;-3.19;78.30;97248.34;4200053;28;20282;-85
2022/12/13 06:14:34;;;;;;;29.98;15.70;;;;;;;-3.26;78.68;97248.56;4188398;28;20198;-86
2022/12/13 06:16:38;;;;;;;27.83;15.50;;;;;;;-3.23;78.32;97256.94;4199599;28;20403;-85
2022/12/13 06:18:41;;;;;;;28.98;17.08;;;;;;;-3.21;78.48;97261.97;4202847;28;20263;-85
2022/12/13 06:20:45;;;;;;;30.60;15.73;;;;;;;-3.23;78.15;97254.38;4194992;28;20284;-85
2022/12/13 06:22:49;;;;;;;26.45;14.65;;;;;;;-3.24;78.51;97256.97;4203211;28;20217;-85
2022/12/13 06:24:53;;;;;;;29.63;16.10;;;;;;;-3.25;78.48;97257.84;4199556;28;20236;-85
2022/12/13 06:26:57;;;;;;;27.45;16.85;;;;;;;-3.38;78.73;97251.44;4187308;28;20209;-84
2022/12/13 06:29:00;;;;;;;29.88;17.55;;;;;;;-3.35;78.54;97247.94;4200595;28;20281;-85
2022/12/13 06:31:09;;;;;;;33.40;19.13;;;;;;;-3.43;78.93;97242.25;4196763;28;20324;-84
2022/12/13 06:33:12;;;;;;;35.05;18.60;;;;;;;-3.44;78.71;97250.75;4202046;28;20295;-85
2022/12/13 06:35:15;;;;;;;29.42;16.35;;;;;;;-3.47;78.89;97244.06;4199504;28;20587;-85
2022/12/13 06:37:32;;;;;;;27.67;16.25;;;;;;;-3.47;78.94;97241.50;4203965;28;20212;-85
2022/12/13 06:39:37;;;;;;;29.60;16.50;;;;;;;-3.44;78.89;97243.13;4199448;28;20209;-85
2022/12/13 06:41:40;;;;;;;28.52;16.15;;;;;;;-3.47;79.10;97241.50;4202498;28;20201;-84
2022/12/13 06:43:43;;;;;;;30.42;17.40;;;;;;;-3.47;78.91;97240.66;4199033;28;20668;-85
2022/12/13 06:45:47;;;;;;;41.22;20.92;;;;;;;-3.49;79.09;97243.25;4203079;28;20689;-85
2022/12/13 06:47:50;;;;;;;56.30;24.25;;;;;;;-3.46;79.10;97257.59;4197614;28;20225;-85
2022/12/13 06:49:53;;;;;;;33.95;17.85;;;;;;;-3.52;79.40;97266.28;4208253;28;20215;-85
2022/12/13 06:51:56;;;;;;;35.70;18.13;;;;;;;-3.54;79.36;97264.63;4184819;28;20213;-85
2022/12/13 06:54:02;;;;;;;33.00;16.58;;;;;;;-3.57;79.19;97270.63;4205298;28;20220;-84
2022/12/13 06:56:15;;;;;;;28.38;16.27;;;;;;;-3.58;79.11;97275.78;4193437;28;20215;-85
2022/12/13 06:58:18;;;;;;;27.58;16.10;;;;;;;-3.58;79.49;97260.50;4202621;28;20639;-85
2022/12/13 07:00:21;;;;;;;33.45;16.40;;;;;;;-3.58;79.59;97256.25;4197704;28;20201;-85
2022/12/13 07:02:29;;;;;;;28.05;14.88;;;;;;;-3.63;78.97;97255.53;4184777;28;20197;-85
2022/12/13 07:04:32;;;;;;;27.98;15.70;;;;;;;-3.66;79.38;97259.88;4187373;28;20249;-85
2022/12/13 07:06:37;;;;;;;28.42;16.30;;;;;;;-3.64;79.41;97264.06;4200799;28;20209;-84
2022/12/13 07:08:42;;;;;;;28.80;17.70;;;;;;;-3.64;79.22;97260.66;4196570;28;20351;-85
2022/12/13 07:10:46;;;;;;;29.80;15.98;;;;;;;-3.68;79.33;97267.56;4196987;28;20204;-85
2022/12/13 07:12:53;;;;;;;31.20;15.52;;;;;;;-3.66;79.27;97270.06;4188592;28;20197;-85
2022/12/13 07:14:56;;;;;;;32.35;17.35;;;;;;;-3.63;79.39;97269.97;4199602;28;20809;-85
2022/12/13 07:16:59;;;;;;;30.60;16.35;;;;;;;-3.64;79.26;97264.06;4195841;28;20213;-85
2022/12/13 07:19:05;;;;;;;29.08;16.27;;;;;;;-3.63;78.77;97264.88;4203773;28;20228;-85
2022/12/13 07:21:26;;;;;;;26.30;15.88;;;;;;;-3.62;78.76;97271.66;4203087;28;20212;-85
2022/12/13 07:23:29;;;;;;;29.67;15.98;;;;;;;-3.64;78.86;97269.16;4195954;28;20231;-85
2022/12/13 07:25:33;;;;;;;27.33;14.65;;;;;;;-3.64;78.62;97268.28;4200018;28;20213;-85
2022/12/13 07:27:38;;;;;;;29.30;15.27;;;;;;;-3.72;78.82;97270.22;4194340;28;20232;-85
2022/12/13 07:29:42;;;;;;;29.45;15.65;;;;;;;-3.70;78.72;97271.84;4197421;28;20761;-85
2022/12/13 07:31:46;;;;;;;27.92;15.05;;;;;;;-3.66;78.68;97277.69;4183399;28;20316;-85
2022/12/13 07:33:49;;;;;;;25.27;14.15;;;;;;;-3.64;79.31;97273.38;4196407;28;20205;-87
2022/12/13 07:35:59;;;;;;;24.40;14.77;;;;;;;-3.58;78.87;97278.31;4186888;28;20704;-86
2022/12/13 07:38:03;;;;;;;30.45;15.82;;;;;;;-3.51;78.44;97272.19;4198923;28;20208;-86
2022/12/13 07:40:07;;;;;;;29.70;16.25;;;;;;;-3.49;78.42;97278.06;4197818;28;20284;-85
2022/12/13 07:42:10;;;;;;;26.95;15.50;;;;;;;-3.44;78.29;97281.31;4201558;28;20217;-88
2022/12/13 07:44:13;;;;;;;26.90;15.70;;;;;;;-3.37;78.33;97280.28;4192436;28;20206;-85
2022/12/13 07:46:19;;;;;;;28.15;15.70;;;;;;;-3.26;78.40;97285.03;4185630;28;20209;-85
2022/12/13 07:48:35;;;;;;;34.17;16.25;;;;;;;-3.04;77.47;97292.91;4189873;28;20645;-86
2022/12/13 07:50:38;;;;;;;29.85;15.95;;;;;;;-2.88;76.72;97304.34;4200020;28;20200;-85
2022/12/13 07:52:41;;;;;;;27.33;16.08;;;;;;;-2.81;76.38;97306.69;4190726;28;20254;-85
2022/12/13 07:54:44;;;;;;;32.05;16.73;;;;;;;-2.83;76.53;97307.59;4188123;28;20194;-85
2022/12/13 07:56:47;;;;;;;31.10;18.35;;;;;;;-2.68;76.10;97313.06;4188978;28;20205;-85
2022/12/13 07:58:50;;;;;;;30.50;17.55;;;;;;;-2.66;76.08;97317.25;4200326;28;20201;-87
2022/12/13 08:00:59;;;;;;;32.17;17.98;;;;;;;-2.67;76.20;97314.75;4184730;28;20209;-88
2022/12/13 08:03:07;;;;;;;27.90;16.30;;;;;;;-2.68;75.88;97313.06;4193511;28;20246;-89
2022/12/13 08:05:17;;;;;;;27.40;15.93;;;;;;;-2.66;75.87;97307.06;4186596;28;20304;-87
2022/12/13 08:07:29;;;;;;;24.95;14.00;;;;;;;-2.64;75.58;97312.13;4195832;28;20205;-88
2022/12/13 08:09:33;;;;;;;28.23;15.90;;;;;;;-2.64;75.56;97312.94;4204608;28;20316;-86
2022/12/13 08:11:36;;;;;;;31.10;14.82;;;;;;;-2.54;75.58;97316.91;4186814;28;20258;-86
2022/12/13 08:13:40;;;;;;;30.83;15.30;;;;;;;-2.44;75.10;97318.28;4200101;28;20218;-84
2022/12/13 08:15:43;;;;;;;25.17;14.18;;;;;;;-2.41;75.07;97320.72;4195280;28;20292;-87
2022/12/13 08:17:47;;;;;;;27.33;15.18;;;;;;;-2.34;75.11;97316.28;4187417;28;20212;-87
2022/12/13 08:19:51;;;;;;;25.13;15.23;;;;;;;-2.28;75.00;97324.59;4185235;28;20209;-87
2022/12/13 08:21:55;;;;;;;27.48;13.73;;;;;;;-2.33;74.87;97324.72;4184464;28;20236;-86
2022/12/13 08:24:00;;;;;;;25.25;14.52;;;;;;;-2.48;74.46;97326.91;4179953;28;20953;-86
2022/12/13 08:26:04;;;;;;;26.52;15.20;;;;;;;-2.42;75.03;97323.31;4181049;28;20689;-85
2022/12/13 08:28:08;;;;;;;23.60;14.00;;;;;;;-2.48;75.11;97326.91;4196374;28;20666;-85
2022/12/13 08:30:11;;;;;;;31.02;15.07;;;;;;;-2.41;75.32;97328.38;4196392;28;20224;-84
2022/12/13 08:32:25;;;;;;;26.33;15.05;;;;;;;-2.47;75.13;97322.63;4197175;28;20220;-85
2022/12/13 08:34:28;;;;;;;29.00;14.75;;;;;;;-2.37;75.23;97327.41;4183884;28;20205;-85
2022/12/13 08:36:33;;;;;;;24.63;14.40;;;;;;;-2.24;74.92;97332.09;4180101;28;20213;-87
2022/12/13 08:38:36;;;;;;;27.95;14.13;;;;;;;-2.17;74.84;97323.34;4179616;28;20221;-85
2022/12/13 08:40:40;;;;;;;29.25;15.15;;;;;;;-2.11;74.71;97322.34;4195940;28;20209;-85
2022/12/13 08:42:43;;;;;;;24.80;14.93;;;;;;;-2.10;74.48;97312.06;4199976;28;20213;-85
2022/12/13 08:44:48;;;;;;;26.60;15.13;;;;;;;-2.13;74.47;97309.63;4201074;28;20689;-85
2022/12/13 08:46:52;;;;;;;25.23;15.93;;;;;;;-2.07;74.37;97311.97;4182194;28;20296;-86
2022/12/13 08:48:55;;;;;;;27.13;15.90;;;;;;;-1.92;74.50;97324.25;4176230;28;20335;-86
2022/12/13 08:51:01;;;;;;;25.20;14.27;;;;;;;-1.84;74.30;97327.38;4195017;28;20271;-85
2022/12/13 08:53:05;;;;;;;27.20;15.85;;;;;;;-1.80;74.04;97336.63;4183986;28;20284;-85
2022/12/13 08:55:09;;;;;;;28.80;16.17;;;;;;;-1.67;73.68;97341.28;4195869;28;20209;-85
2022/12/13 08:57:12;;;;;;;28.25;15.52;;;;;;;-1.67;73.15;97346.41;4191340;28;20941;-86
2022/12/13 08:59:15;;;;;;;23.92;14.20;;;;;;;-1.60;73.64;97347.03;4190579;28;20287;-86
2022/12/13 09:01:19;;;;;;;30.52;16.50;;;;;;;-1.47;73.53;97335.50;4182829;28;20224;-86
2022/12/13 09:03:24;;;;;;;25.33;13.65;;;;;;;-1.31;73.56;97334.91;4175105;28;20248;-86
2022/12/13 09:05:27;;;;;;;23.80;14.35;;;;;;;-1.33;72.81;97336.69;4184715;28;20239;-86
2022/12/13 09:07:38;;;;;;;23.70;13.43;;;;;;;-1.32;72.94;97328.16;4177401;28;20216;-87
2022/12/13 09:09:42;;;;;;;23.63;13.32;;;;;;;-1.25;72.26;97329.59;4189906;28;20214;-85
2022/12/13 09:11:45;;;;;;;22.98;13.63;;;;;;;-1.17;72.80;97333.56;4200832;28;20217;-85
2022/12/13 09:13:49;;;;;;;23.13;13.48;;;;;;;-0.97;72.48;97331.13;4188871;28;20214;-87
2022/12/13 09:15:52;;;;;;;26.25;14.80;;;;;;;-0.93;71.65;97332.69;4190507;28;20210;-87
2022/12/13 09:18:03;;;;;;;24.00;14.05;;;;;;;-0.85;71.93;97341.75;4191635;28;20253;-84
2022/12/13 09:20:10;;;;;;;22.85;13.30;;;;;;;-0.81;71.49;97337.38;4192777;28;20729;-84
2022/12/13 09:22:31;;;;;;;22.30;13.05;;;;;;;-0.76;71.66;97332.91;4179067;28;20687;-85
2022/12/13 09:24:37;;;;;;;22.23;13.45;;;;;;;-0.87;71.91;97328.19;4193131;28;20365;-85
2022/12/13 09:26:43;;;;;;;25.33;14.23;;;;;;;-0.85;71.88;97325.56;4194913;28;20204;-84
2022/12/13 09:28:47;;;;;;;24.52;14.27;;;;;;;-0.80;72.36;97331.34;4192413;28;20215;-86
2022/12/13 09:30:50;;;;;;;23.52;13.95;;;;;;;-0.78;72.25;97327.84;4197420;28;20947;-84
2022/12/13 09:32:53;;;;;;;24.63;15.00;;;;;;;-0.68;72.43;97325.78;4197503;28;20205;-84
2022/12/13 09:34:56;;;;;;;24.67;14.05;;;;;;;-0.57;71.88;97321.94;4204955;28;20245;-84
2022/12/13 09:36:59;;;;;;;26.00;14.50;;;;;;;-0.43;72.32;97338.44;4205417;28;20209;-84
2022/12/13 09:39:06;;;;;;;20.50;11.55;;;;;;;-0.48;71.45;97331.00;4199914;28;20209;-85
2022/12/13 09:41:16;;;;;;;19.70;12.30;;;;;;;-0.45;71.61;97324.88;4195537;28;20219;-85
2022/12/13 09:43:25;;;;;;;22.23;13.23;;;;;;;-0.36;71.47;97324.53;4198763;28;20204;-85